Time;durP1;ratioP1;P1;durP2;ratioP2;P2;SDS_P1;SDS_P2;PMS_P1;PMS_P2;Temp;Humidity;BMP_temperature;BMP_pressure;BME280_temperature;BME280_humidity;BME280_pressure;Samples;Min_cycle;Max_cycle;Signal;HPM_P1;HPM_P2
2022/08/01 00:00:22;;;;;;;15.80;7.90;;;18.10;99.90;;;;;;5051771;28;20115;-75
2022/08/01 00:02:48;;;;;;;17.83;8.07;;;18.10;99.90;;;;;;5062297;28;20240;-75
2022/08/01 00:05:14;;;;;;;11.50;7.50;;;18.10;99.90;;;;;;5060084;28;20485;-74
2022/08/01 00:07:40;;;;;;;11.52;7.05;;;18.10;99.90;;;;;;5052767;28;20097;-69
2022/08/01 00:10:08;;;;;;;13.25;6.03;;;18.10;99.90;;;;;;5057528;28;20148;-69
2022/08/01 00:12:34;;;;;;;8.88;5.57;;;18.10;99.90;;;;;;5063587;28;20060;-69
2022/08/01 00:15:00;;;;;;;10.50;5.30;;;17.90;99.90;;;;;;5059801;28;20135;-69
2022/08/01 00:17:25;;;;;;;10.02;5.20;;;18.00;99.90;;;;;;5074325;28;20501;-69
2022/08/01 00:19:51;;;;;;;7.18;4.40;;;18.00;99.90;;;;;;5053830;28;20048;-68
2022/08/01 00:22:17;;;;;;;7.00;4.05;;;18.10;99.90;;;;;;5054644;28;20040;-69
2022/08/01 00:24:43;;;;;;;8.48;4.43;;;18.10;99.90;;;;;;5049238;28;20048;-69
2022/08/01 00:27:08;;;;;;;7.15;4.10;;;18.00;99.90;;;;;;5049316;28;20420;-69
2022/08/01 00:29:34;;;;;;;12.50;3.67;;;18.00;99.90;;;;;;5049270;28;20045;-69
2022/08/01 00:32:00;;;;;;;6.28;3.45;;;17.90;99.90;;;;;;5059939;28;20040;-69
2022/08/01 00:34:25;;;;;;;9.05;3.60;;;18.00;99.90;;;;;;5055470;28;20076;-69
2022/08/01 00:36:51;;;;;;;6.03;2.72;;;18.00;99.90;;;;;;5054878;28;20050;-69
2022/08/01 00:39:17;;;;;;;7.00;3.17;;;18.00;99.90;;;;;;5049631;28;20439;-69
2022/08/01 00:41:42;;;;;;;5.22;2.90;;;18.00;99.90;;;;;;5053297;28;20037;-69
2022/08/01 00:44:08;;;;;;;8.35;3.40;;;18.00;99.90;;;;;;5056699;28;20072;-69
2022/08/01 00:46:34;;;;;;;8.23;2.70;;;17.90;99.90;;;;;;5061218;28;20076;-69
2022/08/01 00:49:00;;;;;;;7.25;2.90;;;17.90;99.90;;;;;;5059873;28;20115;-68
2022/08/01 00:51:27;;;;;;;8.65;3.20;;;17.90;99.90;;;;;;5061170;28;20032;-69
2022/08/01 00:53:53;;;;;;;7.20;3.08;;;17.90;99.90;;;;;;5059808;28;20397;-69
2022/08/01 00:56:20;;;;;;;7.72;3.25;;;17.90;99.90;;;;;;5065342;28;20059;-69
2022/08/01 00:58:46;;;;;;;8.73;2.92;;;17.90;99.90;;;;;;5063388;28;20072;-69
2022/08/01 01:01:12;;;;;;;9.45;3.65;;;17.90;99.90;;;;;;5058417;28;20072;-69
2022/08/01 01:03:37;;;;;;;10.13;3.65;;;17.90;99.90;;;;;;5057342;28;20048;-69
2022/08/01 01:06:27;;;;;;;6.63;3.25;;;17.90;99.90;;;;;;5063038;28;20036;-69
2022/08/01 01:09:01;;;;;;;10.52;3.15;;;17.90;99.90;;;;;;5065694;28;20405;-69
2022/08/01 01:11:44;;;;;;;8.30;3.47;;;17.90;99.90;;;;;;5046064;28;20056;-69
2022/08/01 01:14:21;;;;;;;8.70;3.38;;;17.90;99.90;;;;;;5045502;28;20052;-69
2022/08/01 01:16:47;;;;;;;7.70;3.30;;;17.80;99.90;;;;;;5061499;28;20063;-69
2022/08/01 01:19:20;;;;;;;9.60;3.63;;;17.80;99.90;;;;;;5053372;28;20197;-69
2022/08/01 01:22:17;;;;;;;11.73;3.38;;;17.80;99.90;;;;;;5039818;28;20434;-69
2022/08/01 01:24:49;;;;;;;7.85;3.30;;;17.90;99.90;;;;;;5055163;28;20120;-69
2022/08/01 01:27:28;;;;;;;6.22;2.72;;;17.80;99.90;;;;;;5056164;28;20052;-69
2022/08/01 01:29:56;;;;;;;10.02;2.97;;;17.80;99.90;;;;;;5057207;28;20179;-69
2022/08/01 01:32:34;;;;;;;8.55;3.15;;;17.80;99.90;;;;;;5055475;28;20124;-69
2022/08/01 01:35:04;;;;;;;5.97;2.65;;;17.70;99.90;;;;;;5063547;28;20053;-69
2022/08/01 01:37:33;;;;;;;9.35;2.85;;;17.70;99.90;;;;;;5054115;28;20052;-68
2022/08/01 01:40:00;;;;;;;4.65;2.00;;;17.70;99.90;;;;;;5056391;28;20060;-69
2022/08/01 01:42:27;;;;;;;7.28;2.15;;;17.70;99.90;;;;;;5054331;28;20052;-69
2022/08/01 01:44:55;;;;;;;7.65;2.15;;;17.70;99.90;;;;;;5053768;28;20056;-69
2022/08/01 01:47:22;;;;;;;9.02;2.15;;;17.70;99.90;;;;;;5057358;28;20299;-69
2022/08/01 01:49:50;;;;;;;8.90;2.50;;;17.60;99.90;;;;;;5055165;28;20037;-70
2022/08/01 01:52:17;;;;;;;12.38;2.33;;;17.70;99.90;;;;;;5055418;28;20044;-70
2022/08/01 01:54:47;;;;;;;8.98;2.45;;;17.60;99.90;;;;;;5055263;28;20072;-69
2022/08/01 01:57:15;;;;;;;8.90;2.33;;;17.50;99.90;;;;;;5055995;28;20061;-69
2022/08/01 01:59:41;;;;;;;7.88;1.92;;;17.50;99.90;;;;;;5058713;28;20936;-69
2022/08/01 02:02:08;;;;;;;10.95;2.30;;;17.50;99.90;;;;;;5061391;28;20037;-69
2022/08/01 02:04:44;;;;;;;10.15;1.83;;;17.50;99.90;;;;;;5063767;28;20044;-69
2022/08/01 02:07:14;;;;;;;7.60;2.17;;;17.50;99.90;;;;;;5063089;28;20426;-69
2022/08/01 02:09:42;;;;;;;11.48;2.17;;;17.50;99.90;;;;;;5064620;28;20042;-70
2022/08/01 02:12:11;;;;;;;9.40;2.47;;;17.40;99.90;;;;;;5061604;28;20052;-70
2022/08/01 02:14:41;;;;;;;6.70;1.92;;;17.40;99.90;;;;;;5062082;28;20044;-69
2022/08/01 02:17:10;;;;;;;8.48;2.20;;;17.40;99.90;;;;;;5063928;28;20045;-69
2022/08/01 02:19:36;;;;;;;5.90;1.70;;;17.40;99.90;;;;;;5055690;28;20047;-70
2022/08/01 02:22:07;;;;;;;12.65;2.40;;;17.40;99.90;;;;;;5051577;28;20410;-70
2022/08/01 02:24:38;;;;;;;13.32;2.55;;;17.30;99.90;;;;;;5059654;28;20049;-69
2022/08/01 02:27:09;;;;;;;;;;;17.30;99.90;;;;;;5056411;28;20135;-70
2022/08/01 02:29:44;;;;;;;14.25;3.10;;;17.30;99.90;;;;;;5053571;28;19935;-70
2022/08/01 02:32:34;;;;;;;13.13;3.28;;;17.20;99.90;;;;;;5058284;28;20446;-70
2022/08/01 02:35:03;;;;;;;10.55;2.83;;;17.20;99.90;;;;;;5046004;28;20190;-71
2022/08/01 02:37:33;;;;;;;13.05;2.92;;;17.20;99.90;;;;;;5059281;28;20132;-71
2022/08/01 02:40:01;;;;;;;10.63;3.42;;;17.20;99.90;;;;;;5073088;28;20049;-70
2022/08/01 02:42:29;;;;;;;9.80;3.08;;;17.20;99.90;;;;;;5059752;28;20084;-70
2022/08/01 02:44:57;;;;;;;18.88;3.75;;;17.20;99.90;;;;;;5060892;28;20044;-69
2022/08/01 02:47:24;;;;;;;16.48;3.60;;;17.10;99.90;;;;;;5058823;28;20048;-70
2022/08/01 02:49:52;;;;;;;13.52;3.10;;;17.10;99.90;;;;;;5059330;28;20555;-69
2022/08/01 02:52:20;;;;;;;15.52;4.10;;;17.10;99.90;;;;;;5057311;28;20048;-70
2022/08/01 02:54:49;;;;;;;12.63;3.80;;;17.10;99.90;;;;;;5034780;28;20197;-69
2022/08/01 02:57:17;;;;;;;13.00;3.80;;;17.00;99.90;;;;;;5051464;28;20037;-69
2022/08/01 02:59:44;;;;;;;11.82;3.28;;;17.20;99.90;;;;;;5062833;28;20048;-69
2022/08/01 03:02:10;;;;;;;11.30;3.50;;;17.00;99.90;;;;;;5060407;28;20040;-69
2022/08/01 03:04:38;;;;;;;13.40;3.50;;;17.00;99.90;;;;;;5043350;28;20323;-70
2022/08/01 03:07:07;;;;;;;18.77;3.97;;;17.00;99.90;;;;;;5055632;28;20040;-70
2022/08/01 03:09:37;;;;;;;10.63;3.47;;;17.00;99.90;;;;;;5060857;28;20068;-70
2022/08/01 03:12:06;;;;;;;15.75;3.53;;;17.00;99.90;;;;;;5063676;28;20135;-70
2022/08/01 03:14:34;;;;;;;15.50;3.28;;;17.00;99.90;;;;;;5043263;28;20046;-69
2022/08/01 03:17:01;;;;;;;12.65;3.45;;;16.90;99.90;;;;;;5065220;28;20054;-70
2022/08/01 03:19:30;;;;;;;17.00;3.80;;;16.90;99.90;;;;;;5064545;28;20048;-69
2022/08/01 03:21:58;;;;;;;14.65;3.38;;;16.90;99.90;;;;;;5045337;28;20045;-69
2022/08/01 03:24:25;;;;;;;13.25;3.67;;;16.90;99.90;;;;;;5064574;28;20059;-70
2022/08/01 03:26:53;;;;;;;15.30;2.90;;;16.80;99.90;;;;;;5056738;28;20059;-70
2022/08/01 03:29:24;;;;;;;13.95;3.05;;;16.90;99.90;;;;;;5063685;28;20036;-69
2022/08/01 03:31:51;;;;;;;17.27;3.30;;;16.80;99.90;;;;;;5063586;28;20052;-70
2022/08/01 03:34:17;;;;;;;17.75;3.65;;;16.80;99.90;;;;;;5065356;28;20032;-70
2022/08/01 03:37:06;;;;;;;17.65;3.83;;;16.80;99.90;;;;;;5062683;28;20423;-69
2022/08/01 03:39:40;;;;;;;9.80;3.28;;;16.80;99.90;;;;;;5046895;28;20048;-69
2022/08/01 03:42:12;;;;;;;13.10;4.07;;;16.80;99.90;;;;;;5046246;28;20040;-69
2022/08/01 03:44:41;;;;;;;16.25;3.28;;;16.80;99.90;;;;;;5066060;28;20037;-69
2022/08/01 03:47:09;;;;;;;14.10;3.30;;;16.70;99.90;;;;;;5063925;28;20102;-70
2022/08/01 03:49:44;;;;;;;14.60;3.22;;;16.70;99.90;;;;;;5065658;28;20438;-69
2022/08/01 03:52:11;;;;;;;16.45;3.30;;;16.70;99.90;;;;;;5062927;28;20041;-70
2022/08/01 03:54:42;;;;;;;17.13;3.35;;;16.70;99.90;;;;;;5062686;28;20534;-69
2022/08/01 03:57:10;;;;;;;17.30;3.28;;;16.70;99.90;;;;;;5064763;28;20186;-69
2022/08/01 03:59:37;;;;;;;14.10;3.40;;;16.50;99.90;;;;;;5063978;28;20477;-69
2022/08/01 04:02:04;;;;;;;14.80;3.45;;;16.60;99.90;;;;;;5062881;28;20459;-69
2022/08/01 04:04:30;;;;;;;15.02;3.50;;;16.60;99.90;;;;;;5065855;28;20111;-69
2022/08/01 04:06:55;;;;;;;15.65;3.30;;;16.60;99.90;;;;;;5065109;28;20566;-69
2022/08/01 04:09:22;;;;;;;14.40;3.35;;;16.60;99.90;;;;;;5064253;28;20036;-69
2022/08/01 04:11:48;;;;;;;19.52;3.20;;;16.50;99.90;;;;;;5046552;28;20040;-69
2022/08/01 04:14:14;;;;;;;14.85;3.17;;;16.60;99.90;;;;;;5060189;28;20043;-69
2022/08/01 04:16:40;;;;;;;18.77;4.07;;;16.70;99.90;;;;;;5054791;28;20131;-69
2022/08/01 04:19:09;;;;;;;19.73;3.50;;;16.50;99.90;;;;;;5062067;28;20532;-69
2022/08/01 04:21:35;;;;;;;17.33;3.58;;;16.50;99.90;;;;;;5062145;28;20108;-69
2022/08/01 04:24:12;;;;;;;19.65;3.80;;;16.50;99.90;;;;;;5060990;28;20370;-69
2022/08/01 04:26:41;;;;;;;19.15;4.07;;;16.50;99.90;;;;;;5063033;28;20295;-69
2022/08/01 04:29:09;;;;;;;20.27;4.63;;;16.40;99.90;;;;;;5068552;28;20052;-69
2022/08/01 04:31:36;;;;;;;17.60;3.03;;;16.40;99.90;;;;;;5064602;28;20045;-69
2022/08/01 04:34:04;;;;;;;20.70;3.88;;;16.40;99.90;;;;;;5069924;28;20056;-69
2022/08/01 04:36:36;;;;;;;17.25;3.25;;;16.40;99.90;;;;;;5051663;28;20420;-69
2022/08/01 04:39:03;;;;;;;15.68;3.22;;;16.30;99.90;;;;;;5069005;28;20087;-69
2022/08/01 04:41:31;;;;;;;20.25;3.35;;;16.30;99.90;;;;;;5068644;28;20037;-69
2022/08/01 04:43:59;;;;;;;21.13;3.85;;;16.30;99.90;;;;;;5069913;28;20041;-69
2022/08/01 04:46:26;;;;;;;18.73;3.58;;;16.40;99.90;;;;;;5064533;28;20543;-69
2022/08/01 04:48:54;;;;;;;18.73;3.30;;;16.30;99.90;;;;;;5051761;28;20075;-69
2022/08/01 04:51:22;;;;;;;20.05;3.15;;;16.30;99.90;;;;;;5046586;28;20524;-69
2022/08/01 04:53:50;;;;;;;15.75;2.65;;;16.40;99.90;;;;;;5063879;28;20123;-70
2022/08/01 04:56:17;;;;;;;15.85;3.38;;;16.30;99.90;;;;;;5064286;28;20123;-69
2022/08/01 04:58:43;;;;;;;19.38;2.95;;;16.40;99.90;;;;;;5063993;28;20037;-69
2022/08/01 05:01:10;;;;;;;20.50;3.72;;;16.40;99.90;;;;;;5069058;28;20048;-69
2022/08/01 05:03:36;;;;;;;15.77;3.22;;;16.40;99.90;;;;;;5068984;28;20032;-69
2022/08/01 05:06:02;;;;;;;16.48;3.38;;;16.40;99.90;;;;;;5068153;28;20397;-68
2022/08/01 05:08:28;;;;;;;15.40;3.20;;;16.30;99.90;;;;;;5058176;28;20045;-69
2022/08/01 05:10:54;;;;;;;23.10;3.50;;;16.40;99.90;;;;;;5062373;28;20110;-69
2022/08/01 05:13:20;;;;;;;15.40;2.90;;;16.30;99.90;;;;;;5056038;28;20045;-69
2022/08/01 05:15:45;;;;;;;16.80;2.97;;;16.40;99.90;;;;;;5059148;28;20055;-68
2022/08/01 05:18:11;;;;;;;19.67;3.22;;;16.30;99.90;;;;;;5054421;28;20044;-68
2022/08/01 05:20:37;;;;;;;15.32;3.30;;;16.40;99.90;;;;;;5050015;28;20045;-66
2022/08/01 05:23:04;;;;;;;13.43;3.33;;;16.40;99.90;;;;;;5055220;28;20235;-70
2022/08/01 05:25:30;;;;;;;18.95;3.15;;;16.30;99.90;;;;;;5054831;28;21387;-68
2022/08/01 05:27:55;;;;;;;15.50;2.92;;;16.30;99.90;;;;;;5052435;28;20280;-69
2022/08/01 05:30:21;;;;;;;16.88;3.30;;;16.30;99.90;;;;;;5054674;28;20056;-69
2022/08/01 05:32:47;;;;;;;17.45;3.28;;;16.50;99.90;;;;;;5056952;28;20387;-69
2022/08/01 05:35:13;;;;;;;21.45;3.58;;;16.30;99.90;;;;;;5057844;28;20032;-69
2022/08/01 05:37:38;;;;;;;16.20;2.75;;;16.30;99.90;;;;;;5048744;28;20131;-69
2022/08/01 05:40:05;;;;;;;22.75;3.17;;;16.30;99.90;;;;;;5056092;28;20049;-68
2022/08/01 05:42:31;;;;;;;20.30;2.92;;;16.30;99.90;;;;;;5036402;28;20079;-68
2022/08/01 05:44:57;;;;;;;19.02;3.65;;;16.30;99.90;;;;;;5042906;28;20087;-68
2022/08/01 05:47:23;;;;;;;18.40;3.50;;;16.30;99.90;;;;;;5053110;28;20041;-68
2022/08/01 05:49:49;;;;;;;22.02;3.78;;;16.30;99.90;;;;;;5057451;28;20068;-69
2022/08/01 05:52:14;;;;;;;21.30;3.63;;;16.30;99.90;;;;;;5066742;28;20086;-68
2022/08/01 05:54:40;;;;;;;17.88;3.58;;;16.30;99.90;;;;;;5060997;28;20051;-69
2022/08/01 05:57:06;;;;;;;14.43;2.97;;;16.30;99.90;;;;;;5058639;28;20574;-68
2022/08/01 05:59:33;;;;;;;21.98;3.88;;;16.30;99.90;;;;;;5063975;28;20051;-69
2022/08/01 06:01:59;;;;;;;22.98;3.28;;;16.40;99.90;;;;;;5061444;28;20513;-68
2022/08/01 06:04:24;;;;;;;24.20;3.53;;;16.40;99.90;;;;;;5047934;28;20076;-68
2022/08/01 06:06:50;;;;;;;19.33;3.17;;;16.30;99.90;;;;;;5063961;28;20032;-68
2022/08/01 06:09:16;;;;;;;19.33;3.28;;;16.40;99.90;;;;;;5039855;28;20592;-68
2022/08/01 06:11:42;;;;;;;27.52;3.75;;;16.50;99.90;;;;;;5060003;28;20492;-68
2022/08/01 06:14:07;;;;;;;20.35;3.58;;;16.40;99.90;;;;;;5054554;28;20053;-68
2022/08/01 06:16:33;;;;;;;15.27;2.88;;;16.40;99.90;;;;;;5060238;28;20037;-68
2022/08/01 06:18:59;;;;;;;22.25;3.65;;;16.50;99.90;;;;;;5059336;28;20071;-68
2022/08/01 06:21:25;;;;;;;19.90;3.15;;;16.50;99.90;;;;;;5062087;28;20408;-68
2022/08/01 06:23:50;;;;;;;19.35;3.90;;;16.50;99.90;;;;;;5058025;28;20504;-72
2022/08/01 06:26:19;;;;;;;22.23;3.60;;;16.50;99.90;;;;;;5042407;28;20087;-73
2022/08/01 06:28:45;;;;;;;17.52;2.90;;;16.60;99.90;;;;;;5055231;28;20047;-74
2022/08/01 06:31:13;;;;;;;16.35;2.90;;;16.50;99.90;;;;;;5058907;28;20769;-73
2022/08/01 06:33:39;;;;;;;18.75;3.40;;;16.60;99.90;;;;;;5058758;28;20032;-72
2022/08/01 06:36:05;;;;;;;22.88;3.45;;;16.60;99.90;;;;;;5058228;28;20036;-73
2022/08/01 06:38:30;;;;;;;18.05;3.33;;;16.60;99.90;;;;;;5063058;28;20068;-73
2022/08/01 06:40:56;;;;;;;15.13;3.00;;;16.70;99.90;;;;;;5056749;28;20049;-73
2022/08/01 06:43:22;;;;;;;13.80;3.33;;;16.70;99.90;;;;;;5062011;28;20581;-73
2022/08/01 06:45:49;;;;;;;17.88;3.10;;;16.80;99.90;;;;;;5059436;28;20055;-73
2022/08/01 06:48:14;;;;;;;19.02;3.20;;;16.80;99.90;;;;;;5059524;28;20119;-73
2022/08/01 06:50:40;;;;;;;18.67;3.13;;;16.90;99.90;;;;;;5044746;28;20469;-73
2022/08/01 06:53:06;;;;;;;15.40;2.20;;;17.10;99.90;;;;;;5065327;28;20193;-73
2022/08/01 06:55:32;;;;;;;15.70;2.60;;;17.10;99.90;;;;;;5064805;28;20128;-73
2022/08/01 06:57:57;;;;;;;16.67;3.05;;;17.20;99.90;;;;;;5061452;28;20040;-72
2022/08/01 07:00:25;;;;;;;19.20;2.78;;;17.30;99.90;;;;;;5060087;28;20111;-72
2022/08/01 07:02:55;;;;;;;13.77;2.55;;;17.40;99.90;;;;;;5059868;28;20386;-74
2022/08/01 07:05:22;;;;;;;14.15;3.00;;;17.40;99.90;;;;;;5050791;28;20120;-73
2022/08/01 07:07:51;;;;;;;16.83;2.70;;;17.50;99.90;;;;;;5065113;28;20040;-73
2022/08/01 07:10:17;;;;;;;19.23;2.85;;;17.80;99.90;;;;;;5064821;28;20059;-73
2022/08/01 07:12:42;;;;;;;16.98;2.83;;;17.70;99.90;;;;;;5054094;28;20055;-74
2022/08/01 07:15:10;;;;;;;15.05;2.95;;;17.80;99.90;;;;;;5065625;28;20044;-73
2022/08/01 07:17:40;;;;;;;17.55;2.65;;;17.90;99.90;;;;;;5045331;28;20032;-72
2022/08/01 07:20:07;;;;;;;14.77;2.42;;;18.00;99.90;;;;;;5044894;28;20040;-73
2022/08/01 07:22:33;;;;;;;12.23;1.95;;;18.00;99.90;;;;;;5056273;28;20105;-73
2022/08/01 07:24:59;;;;;;;18.50;2.50;;;18.10;99.90;;;;;;5056580;28;20558;-73
2022/08/01 07:27:24;;;;;;;15.00;2.70;;;18.30;99.90;;;;;;5057683;28;20070;-72
2022/08/01 07:29:50;;;;;;;14.48;2.55;;;18.20;99.90;;;;;;5060398;28;20121;-69
2022/08/01 07:32:19;;;;;;;14.45;2.35;;;18.40;99.90;;;;;;5064482;28;20039;-69
2022/08/01 07:34:45;;;;;;;13.95;2.72;;;18.60;99.90;;;;;;5050505;28;20033;-69
2022/08/01 07:37:11;;;;;;;8.55;1.95;;;18.70;99.90;;;;;;5054586;28;20518;-68
2022/08/01 07:39:37;;;;;;;15.32;2.15;;;19.00;99.90;;;;;;5060617;28;20489;-69
2022/08/01 07:42:02;;;;;;;19.98;2.40;;;19.20;99.90;;;;;;5049065;28;20048;-70
2022/08/01 07:44:28;;;;;;;12.65;2.13;;;19.30;99.90;;;;;;5041187;28;20033;-69
2022/08/01 07:46:54;;;;;;;16.67;2.33;;;19.40;99.90;;;;;;5055254;28;20132;-69
2022/08/01 07:49:21;;;;;;;15.65;2.38;;;20.10;99.90;;;;;;5040854;28;20048;-70
2022/08/01 07:51:47;;;;;;;14.40;2.22;;;20.70;99.90;;;;;;5042462;28;20051;-69
2022/08/01 07:54:13;;;;;;;16.52;2.17;;;20.80;99.90;;;;;;5045525;28;20665;-70
2022/08/01 07:56:38;;;;;;;13.13;2.30;;;20.80;99.90;;;;;;5047736;28;20044;-68
2022/08/01 07:59:04;;;;;;;18.33;2.67;;;20.90;99.90;;;;;;5044353;28;20044;-69
2022/08/01 08:01:33;;;;;;;11.60;2.08;;;20.70;99.90;;;;;;5052590;28;20504;-66
2022/08/01 08:03:58;;;;;;;15.68;2.08;;;20.60;99.90;;;;;;5061147;28;20501;-68
2022/08/01 08:06:24;;;;;;;15.45;2.10;;;20.70;99.90;;;;;;5066237;28;20041;-68
2022/08/01 08:08:50;;;;;;;10.63;2.10;;;20.90;99.90;;;;;;5064533;28;20937;-68
2022/08/01 08:11:16;;;;;;;9.43;1.85;;;20.90;99.90;;;;;;5067723;28;20401;-68
2022/08/01 08:13:43;;;;;;;11.70;2.47;;;20.80;99.90;;;;;;5064725;28;20075;-68
2022/08/01 08:16:08;;;;;;;10.98;1.70;;;20.80;99.90;;;;;;5047001;28;20080;-69
2022/08/01 08:18:34;;;;;;;13.23;2.33;;;20.90;99.90;;;;;;5040996;28;20094;-69
2022/08/01 08:21:00;;;;;;;14.07;1.90;;;21.00;99.90;;;;;;5052376;28;20052;-69
2022/08/01 08:26:11;;;;;;;12.55;2.53;;;20.90;99.90;;;;;;5057116;28;20087;-69
2022/08/01 08:28:36;;;;;;;14.13;2.10;;;21.10;99.90;;;;;;5055356;28;20041;-69
2022/08/01 08:31:02;;;;;;;13.73;1.85;;;21.40;99.90;;;;;;5053778;28;20045;-69
2022/08/01 08:33:28;;;;;;;8.75;1.70;;;21.40;99.90;;;;;;5053261;28;20136;-70
2022/08/01 08:35:54;;;;;;;14.07;1.80;;;21.50;99.90;;;;;;5054020;28;20048;-69
2022/08/01 08:38:20;;;;;;;11.45;1.80;;;21.50;99.90;;;;;;5052102;28;20590;-70
2022/08/01 08:40:46;;;;;;;10.75;1.67;;;21.30;99.90;;;;;;5060733;28;20174;-70
2022/08/01 08:43:12;;;;;;;14.05;2.05;;;21.10;99.90;;;;;;5056884;28;20512;-70
2022/08/01 08:45:38;;;;;;;12.93;2.17;;;21.20;99.90;;;;;;5055241;28;20775;-68
2022/08/01 08:48:05;;;;;;;13.60;2.13;;;21.20;99.90;;;;;;5062970;28;20045;-69
2022/08/01 08:50:32;;;;;;;14.20;1.95;;;21.40;99.90;;;;;;5062832;28;20477;-69
2022/08/01 08:53:00;;;;;;;11.02;2.05;;;21.40;99.90;;;;;;5031877;28;20135;-69
2022/08/01 08:55:27;;;;;;;11.23;2.08;;;21.60;99.90;;;;;;5059267;28;20554;-69
2022/08/01 08:57:54;;;;;;;12.52;2.13;;;21.90;99.90;;;;;;5057639;28;20036;-70
2022/08/01 09:00:20;;;;;;;9.20;1.63;;;21.80;99.90;;;;;;5061020;28;20055;-70
2022/08/01 09:02:48;;;;;;;10.88;1.80;;;21.80;99.90;;;;;;5056529;28;20442;-69
2022/08/01 09:05:15;;;;;;;12.52;1.85;;;21.80;99.90;;;;;;5049988;28;20451;-69
2022/08/01 09:07:40;;;;;;;9.07;1.60;;;21.60;99.90;;;;;;5057586;28;20036;-70
2022/08/01 09:10:08;;;;;;;12.20;1.80;;;21.40;99.90;;;;;;5053270;28;20053;-69
2022/08/01 09:12:36;;;;;;;11.23;1.80;;;21.50;99.90;;;;;;5054407;28;20052;-70
2022/08/01 09:15:02;;;;;;;12.85;1.73;;;21.70;99.90;;;;;;5061701;28;20056;-69
2022/08/01 09:17:27;;;;;;;9.45;1.63;;;22.00;99.90;;;;;;5059521;28;20099;-70
2022/08/01 09:19:55;;;;;;;14.13;1.63;;;22.20;99.90;;;;;;5042719;28;20048;-69
2022/08/01 09:22:23;;;;;;;11.30;1.88;;;22.40;99.90;;;;;;5057748;28;20124;-69
2022/08/01 09:24:59;;;;;;;10.32;2.13;;;22.50;99.90;;;;;;5059757;28;20378;-69
2022/08/01 09:27:25;;;;;;;12.45;1.90;;;22.40;99.90;;;;;;5056475;28;20412;-70
2022/08/01 09:29:52;;;;;;;15.82;1.88;;;22.20;99.90;;;;;;5059941;28;20040;-69
2022/08/01 09:32:19;;;;;;;12.52;1.70;;;22.10;99.90;;;;;;5062246;28;20098;-69
2022/08/01 09:34:46;;;;;;;8.93;1.70;;;22.20;99.90;;;;;;5047684;28;20039;-69
2022/08/01 09:37:12;;;;;;;9.82;1.60;;;22.40;99.90;;;;;;5054977;28;20087;-71
2022/08/01 09:39:42;;;;;;;8.00;1.48;;;22.10;99.90;;;;;;5059867;28;20082;-70
2022/08/01 09:42:26;;;;;;;13.23;1.70;;;22.00;99.90;;;;;;5061511;28;20241;-70
2022/08/01 09:44:52;;;;;;;10.07;1.77;;;22.10;99.90;;;;;;5057881;28;20055;-70
2022/08/01 09:47:23;;;;;;;10.13;1.60;;;22.30;99.90;;;;;;5061925;28;20078;-70
2022/08/01 09:49:57;;;;;;;10.45;2.03;;;22.20;99.90;;;;;;5064410;28;20036;-72
2022/08/01 09:52:26;;;;;;;10.20;1.77;;;22.40;99.90;;;;;;5065015;28;20040;-71
2022/08/01 09:55:01;;;;;;;6.90;1.40;;;22.00;99.90;;;;;;5058505;28;20041;-72
2022/08/01 09:57:28;;;;;;;8.98;1.42;;;21.60;99.90;;;;;;5062722;28;20169;-72
2022/08/01 09:59:59;;;;;;;8.57;1.40;;;21.50;99.90;;;;;;5057389;28;20075;-71
2022/08/01 10:02:31;;;;;;;11.27;1.98;;;21.60;99.90;;;;;;5049678;28;20428;-71
2022/08/01 10:04:57;;;;;;;13.13;1.70;;;21.70;99.90;;;;;;5043182;28;20159;-71
2022/08/01 10:07:23;;;;;;;9.60;1.83;;;21.90;99.90;;;;;;5062815;28;20059;-72
2022/08/01 10:09:49;;;;;;;11.27;1.70;;;22.30;99.90;;;;;;5063983;28;20040;-70
2022/08/01 10:12:17;;;;;;;8.77;1.48;;;22.40;99.90;;;;;;5046241;28;20052;-70
2022/08/01 10:14:45;;;;;;;11.32;1.88;;;22.10;99.90;;;;;;5038421;28;20037;-70
2022/08/01 10:17:14;;;;;;;9.35;1.70;;;21.90;99.90;;;;;;5058247;28;20409;-69
2022/08/01 10:19:41;;;;;;;6.47;1.25;;;22.00;99.90;;;;;;5051821;28;20072;-68
2022/08/01 10:22:18;;;;;;;9.45;1.90;;;22.30;99.90;;;;;;5049417;28;20155;-69
2022/08/01 10:24:47;;;;;;;12.30;1.80;;;22.50;99.90;;;;;;5048319;28;20159;-69
2022/08/01 10:27:16;;;;;;;8.18;1.45;;;22.70;99.90;;;;;;5052191;28;20049;-70
2022/08/01 10:29:56;;;;;;;9.07;1.20;;;22.90;99.90;;;;;;5056877;28;20040;-69
2022/08/01 10:32:22;;;;;;;11.03;1.50;;;23.00;99.90;;;;;;5046570;28;20218;-69
2022/08/01 10:34:49;;;;;;;9.57;1.80;;;23.00;99.90;;;;;;5034115;28;20168;-70
2022/08/01 10:37:17;;;;;;;10.30;1.30;;;23.10;99.90;;;;;;5054657;28;20417;-69
2022/08/01 10:39:43;;;;;;;9.95;1.50;;;22.90;99.90;;;;;;5058560;28;20059;-70
2022/08/01 10:42:11;;;;;;;8.35;1.60;;;22.90;99.90;;;;;;5064229;28;20040;-70
2022/08/01 10:44:38;;;;;;;6.47;1.77;;;22.80;99.90;;;;;;5067528;28;20521;-70
2022/08/01 10:47:11;;;;;;;9.68;1.20;;;22.90;99.90;;;;;;5055498;28;20051;-68
2022/08/01 10:49:53;;;;;;;5.88;1.27;;;23.00;99.90;;;;;;5051162;28;20045;-72
2022/08/01 10:52:20;;;;;;;10.20;1.52;;;22.70;99.90;;;;;;5061184;28;20037;-69
2022/08/01 10:54:46;;;;;;;15.18;1.55;;;22.40;99.90;;;;;;5048864;28;20051;-69
2022/08/01 10:57:13;;;;;;;9.18;1.60;;;22.20;99.90;;;;;;5052077;28;20048;-69
2022/08/01 10:59:50;;;;;;;11.13;1.83;;;22.30;99.90;;;;;;5053800;28;20041;-68
2022/08/01 11:02:31;;;;;;;10.25;1.80;;;22.60;99.90;;;;;;5054584;28;20088;-70
2022/08/01 11:05:09;;;;;;;9.00;1.43;;;22.70;99.90;;;;;;5054560;28;20048;-69
2022/08/01 11:07:54;;;;;;;8.20;1.48;;;22.50;99.90;;;;;;5051298;28;20636;-69
2022/08/01 11:10:39;;;;;;;9.20;1.30;;;22.40;99.90;;;;;;5045521;28;20049;-68
2022/08/01 11:13:07;;;;;;;10.70;1.63;;;22.40;99.90;;;;;;5056321;28;20087;-68
2022/08/01 11:15:37;;;;;;;9.38;1.58;;;22.50;99.90;;;;;;5043231;28;20744;-69
2022/08/01 11:18:24;;;;;;;12.75;1.70;;;22.20;99.90;;;;;;5056371;28;20045;-68
2022/08/01 11:20:58;;;;;;;8.70;1.33;;;22.00;99.90;;;;;;5069442;28;20127;-69
2022/08/01 11:23:27;;;;;;;7.63;1.42;;;22.10;99.90;;;;;;5053800;28;20052;-69
2022/08/01 11:25:53;;;;;;;6.97;1.30;;;22.20;99.90;;;;;;5052029;28;20040;-69
2022/08/01 11:28:24;;;;;;;11.10;1.63;;;22.20;99.90;;;;;;5031859;28;20056;-70
2022/08/01 11:31:15;;;;;;;9.35;1.33;;;22.40;99.90;;;;;;5043532;28;20124;-69
2022/08/01 11:33:41;;;;;;;;;;;22.50;99.90;;;;;;5055676;28;20390;-69
2022/08/01 11:36:13;;;;;;;9.07;1.30;;;22.50;99.90;;;;;;5046637;28;19935;-69
2022/08/01 11:38:43;;;;;;;9.40;1.55;;;22.50;99.90;;;;;;5052668;28;20417;-68
2022/08/01 11:41:21;;;;;;;12.98;1.98;;;22.50;99.90;;;;;;5061158;28;20087;-69
2022/08/01 11:44:10;;;;;;;9.63;1.40;;;22.50;99.90;;;;;;5060809;28;20393;-70
2022/08/01 11:46:48;;;;;;;10.15;1.95;;;22.50;99.90;;;;;;5057812;28;20888;-69
2022/08/01 11:49:39;;;;;;;9.05;1.30;;;22.40;99.90;;;;;;5047445;28;20048;-69
2022/08/01 11:52:13;;;;;;;7.63;1.55;;;22.30;99.90;;;;;;5063274;28;20044;-69
2022/08/01 11:54:51;;;;;;;9.38;1.50;;;22.30;99.90;;;;;;5047533;28;20040;-69
2022/08/01 11:57:30;;;;;;;7.40;1.10;;;22.40;99.90;;;;;;5057931;28;20483;-71
2022/08/01 11:59:59;;;;;;;8.02;1.20;;;22.30;99.10;;;;;;5037188;28;20486;-69
2022/08/01 12:02:26;;;;;;;13.60;1.50;;;22.40;99.90;;;;;;5057995;28;20044;-69
2022/08/01 12:04:55;;;;;;;5.47;1.45;;;22.40;99.90;;;;;;5051362;28;20408;-69
2022/08/01 12:07:22;;;;;;;10.25;1.63;;;22.30;99.90;;;;;;5054908;28;20371;-70
2022/08/01 12:09:56;;;;;;;6.05;1.40;;;22.30;99.60;;;;;;5063019;28;20563;-68
2022/08/01 12:12:21;;;;;;;14.10;2.25;;;22.20;99.90;;;;;;5058120;28;20036;-69
2022/08/01 12:14:57;;;;;;;6.65;1.23;;;22.20;99.90;;;;;;5060566;28;20433;-70
2022/08/01 12:17:34;;;;;;;6.95;1.38;;;22.30;99.90;;;;;;5065814;28;20032;-69
2022/08/01 12:20:00;;;;;;;11.65;2.03;;;22.40;99.90;;;;;;5063018;28;20056;-69
2022/08/01 12:22:26;;;;;;;8.18;1.50;;;22.40;99.90;;;;;;5066697;28;20043;-69
2022/08/01 12:24:52;;;;;;;8.43;1.23;;;22.50;99.80;;;;;;5064282;28;20044;-69
2022/08/01 12:27:28;;;;;;;4.88;1.20;;;22.60;99.90;;;;;;5063431;28;20048;-69
2022/08/01 12:29:55;;;;;;;11.85;1.65;;;22.80;99.90;;;;;;5060930;28;20052;-69
2022/08/01 12:32:32;;;;;;;6.75;1.30;;;22.80;98.50;;;;;;5079155;28;20124;-69
2022/08/01 12:35:22;;;;;;;5.20;1.35;;;22.80;98.40;;;;;;5058787;28;20060;-69
2022/08/01 12:37:53;;;;;;;7.83;1.37;;;22.80;98.70;;;;;;5062882;28;20048;-69
2022/08/01 12:40:21;;;;;;;7.85;1.55;;;22.60;98.10;;;;;;5063881;28;20052;-70
2022/08/01 12:42:51;;;;;;;9.40;1.50;;;22.20;97.00;;;;;;5061886;28;20049;-72
2022/08/01 12:45:25;;;;;;;10.50;1.52;;;22.10;99.80;;;;;;5058420;28;20503;-70
2022/08/01 12:47:53;;;;;;;8.60;1.40;;;22.10;99.20;;;;;;5052435;28;21397;-73
2022/08/01 12:50:21;;;;;;;7.57;1.70;;;22.00;98.30;;;;;;5063243;28;20040;-72